Time;durP1;ratioP1;P1;durP2;ratioP2;P2;SDS_P1;SDS_P2;PMS_P1;PMS_P2;Temp;Humidity;BMP_temperature;BMP_pressure;BME280_temperature;BME280_humidity;BME280_pressure;Samples;Min_cycle;Max_cycle;Signal;HPM_P1;HPM_P2
2022/07/01 00:00:45;;;;;;;;;;;;;;;;;;5113035;28;994;-69
2022/07/01 00:03:10;;;;;;;;;;;;;;;;;;5111011;28;1901;-69
2022/07/01 00:05:35;;;;;;;;;;;;;;;;;;5112983;28;946;-69
2022/07/01 00:08:01;;;;;;;;;;;;;;;;;;5112394;28;891;-68
2022/07/01 00:10:26;;;;;;;;;;;;;;;;;;5112530;28;871;-69
2022/07/01 00:12:51;;;;;;;;;;;;;;;;;;5112611;28;813;-69
2022/07/01 00:15:16;;;;;;;;;;;;;;;;;;5112337;28;820;-69
2022/07/01 00:17:43;;;;;;;;;;;;;;;;;;5112569;28;856;-69
2022/07/01 00:20:09;;;;;;;;;;;;;;;;;;5110656;28;820;-69
2022/07/01 00:22:34;;;;;;;;;;;;;;;;;;5112172;28;1952;-69
2022/07/01 00:25:00;;;;;;;;;;;;;;;;;;5109911;28;1329;-69
2022/07/01 00:27:25;;;;;;;;;;;;;;;;;;5109708;28;1194;-69
2022/07/01 00:29:50;;;;;;;;;;;;;;;;;;5111717;28;919;-69
2022/07/01 00:32:16;;;;;;;;;;;;;;;;;;5110081;28;1179;-69
2022/07/01 00:34:41;;;;;;;;;;;;;;;;;;5110744;28;1411;-70
2022/07/01 00:37:06;;;;;;;;;;;;;;;;;;5109293;28;1094;-70
2022/07/01 00:39:33;;;;;;;;;;;;;;;;;;5111994;28;777;-70
2022/07/01 00:42:00;;;;;;;;;;;;;;;;;;5111478;28;844;-70
2022/07/01 00:44:26;;;;;;;;;;;;;;;;;;5109709;28;1905;-70
2022/07/01 00:46:51;;;;;;;;;;;;;;;;;;5112513;28;967;-70
2022/07/01 00:49:17;;;;;;;;;;;;;;;;;;5110891;28;1585;-70
2022/07/01 00:51:43;;;;;;;;;;;;;;;;;;5111923;28;1048;-70
2022/07/01 00:54:09;;;;;;;;;;;;;;;;;;5111885;27;938;-70
2022/07/01 00:56:35;;;;;;;;;;;;;;;;;;5112134;28;1137;-70
2022/07/01 00:59:00;;;;;;;;;;;;;;;;;;5111885;28;848;-70
2022/07/01 01:01:25;;;;;;;;;;;;;;;;;;5111755;28;860;-70
2022/07/01 01:03:50;;;;;;;;;;;;;;;;;;5111816;28;1957;-70
2022/07/01 01:06:16;;;;;;;;;;;;;;;;;;5111367;28;754;-70
2022/07/01 01:08:42;;;;;;;;;;;;;;;;;;5111717;28;1045;-70
2022/07/01 01:11:07;;;;;;;;;;;;;;;;;;5111414;28;959;-70
2022/07/01 01:13:32;;;;;;;;;;;;;;;;;;5111378;28;868;-70
2022/07/01 01:15:57;;;;;;;;;;;;;;;;;;5110959;28;777;-70
2022/07/01 01:18:23;;;;;;;;;;;;;;;;;;5110785;28;998;-70
2022/07/01 01:20:48;;;;;;;;;;;;;;;;;;5111215;28;952;-70
2022/07/01 01:23:13;;;;;;;;;;;;;;;;;;5110867;28;1957;-70
2022/07/01 01:25:45;;;;;;;;;;;;;;;;;;5111711;28;900;-69
2022/07/01 01:28:10;;;;;;;;;;;;;;;;;;5094279;28;1321;-69
2022/07/01 01:30:35;;;;;;;;;;;;;;;;;;5112789;28;832;-70
2022/07/01 01:33:01;;;;;;;;;;;;;;;;;;5111110;28;1363;-69
2022/07/01 01:35:26;;;;;;;;;;;;;;;;;;5111462;28;1068;-69
2022/07/01 01:37:51;;;;;;;;;;;;;;;;;;5111756;28;1221;-69
2022/07/01 01:40:17;;;;;;;;;;;;;;;;;;5109891;28;1400;-69
2022/07/01 01:42:42;;;;;;;;;;;;;;;;;;5111821;28;1917;-69
2022/07/01 01:45:08;;;;;;;;;;;;;;;;;;5111351;28;986;-69
2022/07/01 01:47:33;;;;;;;;;;;;;;;;;;5093879;28;1282;-69
2022/07/01 01:49:58;;;;;;;;;;;;;;;;;;5115912;28;848;-69
2022/07/01 01:52:24;;;;;;;;;;;;;;;;;;5113164;28;946;-69
2022/07/01 01:54:49;;;;;;;;;;;;;;;;;;5113296;28;1135;-69
2022/07/01 01:57:14;;;;;;;;;;;;;;;;;;5114094;28;883;-69
2022/07/01 01:59:39;;;;;;;;;;;;;;;;;;5114986;28;1086;-69
2022/07/01 02:02:05;;;;;;;;;;;;;;;;;;5112931;28;868;-69
2022/07/01 02:04:31;;;;;;;;;;;;;;;;;;5114667;28;1898;-69
2022/07/01 02:06:56;;;;;;;;;;;;;;;;;;5114423;28;977;-69
2022/07/01 02:09:21;;;;;;;;;;;;;;;;;;5112823;28;1433;-69
2022/07/01 02:11:47;;;;;;;;;;;;;;;;;;5115058;28;777;-69
2022/07/01 02:14:12;;;;;;;;;;;;;;;;;;5114268;28;1117;-69
2022/07/01 02:16:37;;;;;;;;;;;;;;;;;;5115378;28;994;-69
2022/07/01 02:19:03;;;;;;;;;;;;;;;;;;5114735;28;871;-69
2022/07/01 02:21:28;;;;;;;;;;;;;;;;;;5095760;28;1194;-69
2022/07/01 02:23:53;;;;;;;;;;;;;;;;;;5113058;28;1897;-69
2022/07/01 02:26:19;;;;;;;;;;;;;;;;;;5113866;28;950;-69
2022/07/01 02:28:44;;;;;;;;;;;;;;;;;;5112844;28;869;-69
2022/07/01 02:31:09;;;;;;;;;;;;;;;;;;5114039;28;919;-69
2022/07/01 02:33:35;;;;;;;;;;;;;;;;;;5114253;28;1006;-69
2022/07/01 02:36:00;;;;;;;;;;;;;;;;;;5114365;28;1207;-69
2022/07/01 02:38:26;;;;;;;;;;;;;;;;;;5113516;28;935;-69
2022/07/01 02:40:51;;;;;;;;;;;;;;;;;;5114276;28;836;-69
2022/07/01 02:43:16;;;;;;;;;;;;;;;;;;5113339;27;1963;-69
2022/07/01 02:45:42;;;;;;;;;;;;;;;;;;5114332;28;888;-68
2022/07/01 02:48:07;;;;;;;;;;;;;;;;;;5112734;28;915;-69
2022/07/01 02:50:32;;;;;;;;;;;;;;;;;;5112238;28;808;-69
2022/07/01 02:52:58;;;;;;;;;;;;;;;;;;5112792;28;1466;-69
2022/07/01 02:55:23;;;;;;;;;;;;;;;;;;5113367;27;1058;-69
2022/07/01 02:57:51;;;;;;;;;;;;;;;;;;5112161;28;1297;-69
2022/07/01 03:00:17;;;;;;;;;;;;;;;;;;5113024;28;852;-69
2022/07/01 03:02:43;;;;;;;;;;;;;;;;;;5114453;28;1898;-69
2022/07/01 03:05:10;;;;;;;;;;;;;;;;;;5114378;28;1002;-69
2022/07/01 03:07:35;;;;;;;;;;;;;;;;;;5096505;28;1268;-69
2022/07/01 03:10:01;;;;;;;;;;;;;;;;;;5116535;28;995;-69
2022/07/01 03:12:29;;;;;;;;;;;;;;;;;;5116076;28;1014;-68
2022/07/01 03:14:59;;;;;;;;;;;;;;;;;;5097501;28;1254;-68
2022/07/01 03:17:25;;;;;;;;;;;;;;;;;;5116421;28;840;-69
2022/07/01 03:19:54;;;;;;;;;;;;;;;;;;5114000;28;1312;-69
2022/07/01 03:22:23;;;;;;;;;;;;;;;;;;5115761;27;978;-68
2022/07/01 03:24:48;;;;;;;;;;;;;;;;;;5116654;28;1906;-69
2022/07/01 03:27:14;;;;;;;;;;;;;;;;;;5117169;28;872;-69
2022/07/01 03:29:40;;;;;;;;;;;;;;;;;;5120010;28;946;-69
2022/07/01 03:32:05;;;;;;;;;;;;;;;;;;5118807;28;1229;-69
2022/07/01 03:34:30;;;;;;;;;;;;;;;;;;5118204;28;923;-68
2022/07/01 03:36:56;;;;;;;;;;;;;;;;;;5116717;28;1326;-68
2022/07/01 03:39:21;;;;;;;;;;;;;;;;;;5115418;28;983;-69
2022/07/01 03:41:46;;;;;;;;;;;;;;;;;;5113576;28;836;-69
2022/07/01 03:44:11;;;;;;;;;;;;;;;;;;5094705;28;1968;-69
2022/07/01 03:46:37;;;;;;;;;;;;;;;;;;5112097;28;840;-69
2022/07/01 03:49:02;;;;;;;;;;;;;;;;;;5113363;28;800;-69
2022/07/01 03:51:28;;;;;;;;;;;;;;;;;;5112945;28;836;-71
2022/07/01 03:56:37;;;;;;;;;;;;;;;;;;5113177;28;624;-69
2022/07/01 03:59:02;;;;;;;;;;;;;;;;;;5113379;27;986;-69
2022/07/01 04:01:28;;;;;;;;;;;;;;;;;;5111462;28;793;-69
2022/07/01 04:03:53;;;;;;;;;;;;;;;;;;5111198;28;1949;-69
2022/07/01 04:06:18;;;;;;;;;;;;;;;;;;5111943;28;904;-69
2022/07/01 04:08:44;;;;;;;;;;;;;;;;;;5112751;28;825;-69
2022/07/01 04:11:09;;;;;;;;;;;;;;;;;;5111592;28;1053;-69
2022/07/01 04:13:37;;;;;;;;;;;;;;;;;;5112486;28;871;-70
2022/07/01 04:16:02;;;;;;;;;;;;;;;;;;5112317;28;848;-70
2022/07/01 04:18:28;;;;;;;;;;;;;;;;;;5112188;28;994;-70
2022/07/01 04:23:37;;;;;;;;;;;;;;;;;;5112135;28;1969;-70
2022/07/01 04:26:02;;;;;;;;;;;;;;;;;;5112300;28;848;-70
2022/07/01 04:28:28;;;;;;;;;;;;;;;;;;5111947;28;958;-69
2022/07/01 04:30:53;;;;;;;;;;;;;;;;;;5110586;28;1205;-68
2022/07/01 04:33:18;;;;;;;;;;;;;;;;;;5110230;28;758;-68
2022/07/01 04:35:43;;;;;;;;;;;;;;;;;;5108579;28;1279;-68
2022/07/01 04:38:09;;;;;;;;;;;;;;;;;;5110292;28;896;-68
2022/07/01 04:40:34;;;;;;;;;;;;;;;;;;5112049;28;821;-69
2022/07/01 04:42:59;;;;;;;;;;;;;;;;;;5111998;28;1902;-69
2022/07/01 04:45:24;;;;;;;;;;;;;;;;;;5110858;28;1053;-69
2022/07/01 04:47:49;;;;;;;;;;;;;;;;;;5112631;28;769;-69
2022/07/01 04:50:15;;;;;;;;;;;;;;;;;;5111921;28;762;-69
2022/07/01 04:52:40;;;;;;;;;;;;;;;;;;5112355;28;895;-69
2022/07/01 04:55:06;;;;;;;;;;;;;;;;;;5111848;28;951;-69
2022/07/01 04:57:31;;;;;;;;;;;;;;;;;;5093282;28;1231;-69
2022/07/01 04:59:56;;;;;;;;;;;;;;;;;;5111167;28;989;-69
2022/07/01 05:02:22;;;;;;;;;;;;;;;;;;5109892;28;1380;-69
2022/07/01 05:04:47;;;;;;;;;;;;;;;;;;5111104;28;1905;-69
2022/07/01 05:07:27;;;;;;;;;;;;;;;;;;5110816;28;1182;-69
2022/07/01 05:09:53;;;;;;;;;;;;;;;;;;5111346;28;903;-69
2022/07/01 05:12:18;;;;;;;;;;;;;;;;;;5111266;28;758;-69
2022/07/01 05:14:43;;;;;;;;;;;;;;;;;;5092624;28;1077;-69
2022/07/01 05:17:08;;;;;;;;;;;;;;;;;;5109801;28;1038;-69
2022/07/01 05:22:18;;;;;;;;;;;;;;;;;;5111143;28;678;-69
2022/07/01 05:24:43;;;;;;;;;;;;;;;;;;5111265;28;1902;-69
2022/07/01 05:27:08;;;;;;;;;;;;;;;;;;5111019;28;998;-69
2022/07/01 05:29:33;;;;;;;;;;;;;;;;;;5109366;28;1093;-69
2022/07/01 05:31:59;;;;;;;;;;;;;;;;;;5111471;28;935;-69
2022/07/01 05:34:24;;;;;;;;;;;;;;;;;;5109614;28;863;-70
2022/07/01 05:36:49;;;;;;;;;;;;;;;;;;5113405;28;1140;-70
2022/07/01 05:39:15;;;;;;;;;;;;;;;;;;5128225;28;1222;-70
2022/07/01 05:41:40;;;;;;;;;;;;;;;;;;5130170;27;1242;-70
2022/07/01 05:44:05;;;;;;;;;;;;;;;;;;5122124;27;1971;-70
2022/07/01 05:46:31;;;;;;;;;;;;;;;;;;5110030;28;1230;-70
2022/07/01 05:48:56;;;;;;;;;;;;;;;;;;5109676;28;1077;-69
2022/07/01 05:51:21;;;;;;;;;;;;;;;;;;5110529;28;840;-69
2022/07/01 05:53:47;;;;;;;;;;;;;;;;;;5110797;28;1124;-69
2022/07/01 05:56:12;;;;;;;;;;;;;;;;;;5109052;28;829;-69
2022/07/01 05:58:38;;;;;;;;;;;;;;;;;;5110974;28;887;-69
2022/07/01 06:01:03;;;;;;;;;;;;;;;;;;5110885;28;781;-68
2022/07/01 06:03:29;;;;;;;;;;;;;;;;;;5110402;28;1902;-70
2022/07/01 06:05:54;;;;;;;;;;;;;;;;;;5110650;28;1029;-69
2022/07/01 06:08:19;;;;;;;;;;;;;;;;;;5110537;28;840;-69
2022/07/01 06:10:45;;;;;;;;;;;;;;;;;;5110665;28;809;-70
2022/07/01 06:13:10;;;;;;;;;;;;;;;;;;5110054;28;805;-70
2022/07/01 06:15:36;;;;;;;;;;;;;;;;;;5110562;28;750;-69
2022/07/01 06:18:01;;;;;;;;;;;;;;;;;;5110578;28;778;-70
2022/07/01 06:20:27;;;;;;;;;;;;;;;;;;5111366;28;798;-70
2022/07/01 06:22:52;;;;;;;;;;;;;;;;;;5111032;28;1901;-70
2022/07/01 06:25:18;;;;;;;;;;;;;;;;;;5111352;28;892;-69
2022/07/01 06:27:44;;;;;;;;;;;;;;;;;;5109204;28;1285;-70
2022/07/01 06:30:09;;;;;;;;;;;;;;;;;;5110741;28;960;-70
2022/07/01 06:32:35;;;;;;;;;;;;;;;;;;5109619;28;1457;-70
2022/07/01 06:35:00;;;;;;;;;;;;;;;;;;5110930;28;1414;-70
2022/07/01 06:37:25;;;;;;;;;;;;;;;;;;5114755;28;778;-70
2022/07/01 06:39:50;;;;;;;;;;;;;;;;;;5112492;28;1111;-70
2022/07/01 06:42:16;;;;;;;;;;;;;;;;;;5113271;28;911;-70
2022/07/01 06:44:41;;;;;;;;;;;;;;;;;;5113407;28;1905;-70
2022/07/01 06:47:07;;;;;;;;;;;;;;;;;;5112398;28;1438;-70
2022/07/01 06:49:32;;;;;;;;;;;;;;;;;;5114038;28;829;-70
2022/07/01 06:51:57;;;;;;;;;;;;;;;;;;5113086;28;948;-69
2022/07/01 06:54:22;;;;;;;;;;;;;;;;;;5111891;28;1166;-70
2022/07/01 06:56:48;;;;;;;;;;;;;;;;;;5111745;28;1284;-70
2022/07/01 06:59:14;;;;;;;;;;;;;;;;;;5113821;28;900;-69
2022/07/01 07:01:40;;;;;;;;;;;;;;;;;;5113106;28;930;-70
2022/07/01 07:04:06;;;;;;;;;;;;;;;;;;5111461;28;1913;-70
2022/07/01 07:06:31;;;;;;;;;;;;;;;;;;5114080;28;802;-70
2022/07/01 07:08:56;;;;;;;;;;;;;;;;;;5113986;28;840;-70
2022/07/01 07:11:21;;;;;;;;;;;;;;;;;;5113202;28;971;-70
2022/07/01 07:13:47;;;;;;;;;;;;;;;;;;5112231;28;812;-70
2022/07/01 07:16:12;;;;;;;;;;;;;;;;;;5113143;28;742;-70
2022/07/01 07:18:37;;;;;;;;;;;;;;;;;;5113592;28;916;-70
2022/07/01 07:21:03;;;;;;;;;;;;;;;;;;5111656;28;1350;-71
2022/07/01 07:23:29;;;;;;;;;;;;;;;;;;5113136;27;1906;-71
2022/07/01 07:25:54;;;;;;;;;;;;;;;;;;5113080;28;946;-70
2022/07/01 07:28:19;;;;;;;;;;;;;;;;;;5113102;28;883;-70
2022/07/01 07:30:45;;;;;;;;;;;;;;;;;;5112339;28;919;-70
2022/07/01 07:33:10;;;;;;;;;;;;;;;;;;5112813;28;943;-70
2022/07/01 07:35:35;;;;;;;;;;;;;;;;;;5113310;28;1286;-70
2022/07/01 07:38:00;;;;;;;;;;;;;;;;;;5112829;28;958;-70
2022/07/01 07:40:25;;;;;;;;;;;;;;;;;;5111561;28;824;-70
2022/07/01 07:42:51;;;;;;;;;;;;;;;;;;5112596;28;1906;-70
2022/07/01 07:45:16;;;;;;;;;;;;;;;;;;5111723;28;887;-68
2022/07/01 07:47:43;;;;;;;;;;;;;;;;;;5112382;28;883;-68
2022/07/01 07:50:09;;;;;;;;;;;;;;;;;;5111084;28;868;-71
2022/07/01 07:52:34;;;;;;;;;;;;;;;;;;5111027;28;1225;-70
2022/07/01 07:54:59;;;;;;;;;;;;;;;;;;5112258;28;880;-72
2022/07/01 07:57:25;;;;;;;;;;;;;;;;;;5111275;28;1296;-71
2022/07/01 07:59:50;;;;;;;;;;;;;;;;;;5093364;28;1435;-71
2022/07/01 08:02:15;;;;;;;;;;;;;;;;;;5112045;28;836;-71
2022/07/01 08:04:41;;;;;;;;;;;;;;;;;;5113045;28;1902;-71
2022/07/01 08:07:06;;;;;;;;;;;;;;;;;;5111591;28;1128;-71
2022/07/01 08:09:34;;;;;;;;;;;;;;;;;;5111555;28;1232;-71
2022/07/01 08:11:59;;;;;;;;;;;;;;;;;;5094111;28;1350;-71
2022/07/01 08:14:24;;;;;;;;;;;;;;;;;;5111099;28;1380;-71
2022/07/01 08:16:50;;;;;;;;;;;;;;;;;;5111052;28;808;-71
2022/07/01 08:19:15;;;;;;;;;;;;;;;;;;5112131;28;832;-71
2022/07/01 08:21:40;;;;;;;;;;;;;;;;;;5110564;28;832;-71
2022/07/01 08:24:06;;;;;;;;;;;;;;;;;;5110369;28;1898;-71
2022/07/01 08:26:31;;;;;;;;;;;;;;;;;;5093743;28;1261;-71
2022/07/01 08:28:56;;;;;;;;;;;;;;;;;;5112002;28;1004;-71
2022/07/01 08:31:22;;;;;;;;;;;;;;;;;;5111961;28;950;-71
2022/07/01 08:33:47;;;;;;;;;;;;;;;;;;5112319;28;887;-71
2022/07/01 08:36:13;;;;;;;;;;;;;;;;;;5109285;28;1268;-71
2022/07/01 08:38:39;;;;;;;;;;;;;;;;;;5110373;28;833;-71
2022/07/01 08:41:04;;;;;;;;;;;;;;;;;;5112056;28;824;-71
2022/07/01 08:43:30;;;;;;;;;;;;;;;;;;5110375;28;1910;-71
2022/07/01 08:45:55;;;;;;;;;;;;;;;;;;5112123;28;892;-70
2022/07/01 08:48:20;;;;;;;;;;;;;;;;;;5112003;28;781;-70
2022/07/01 08:50:46;;;;;;;;;;;;;;;;;;5112668;28;821;-70
2022/07/01 08:53:12;;;;;;;;;;;;;;;;;;5112206;28;911;-70
2022/07/01 08:58:22;;;;;;;;;;;;;;;;;;5113710;28;720;-70
2022/07/01 09:00:48;;;;;;;;;;;;;;;;;;5111209;28;1194;-70
2022/07/01 09:03:13;;;;;;;;;;;;;;;;;;5109757;28;1898;-70
2022/07/01 09:05:47;;;;;;;;;;;;;;;;;;5112085;28;895;-70
2022/07/01 09:08:12;;;;;;;;;;;;;;;;;;5111685;28;762;-70
2022/07/01 09:10:37;;;;;;;;;;;;;;;;;;5112639;28;844;-70
2022/07/01 09:13:07;;;;;;;;;;;;;;;;;;5111171;28;742;-70
2022/07/01 09:15:32;;;;;;;;;;;;;;;;;;5110879;28;860;-70
2022/07/01 09:18:05;;;;;;;;;;;;;;;;;;5111681;28;942;-70
2022/07/01 09:20:32;;;;;;;;;;;;;;;;;;5109367;28;1214;-70
2022/07/01 09:23:02;;;;;;;;;;;;;;;;;;5109933;28;1897;-70
2022/07/01 09:25:29;;;;;;;;;;;;;;;;;;5112097;28;860;-70
2022/07/01 09:28:07;;;;;;;;;;;;;;;;;;5112617;28;1032;-70
2022/07/01 09:30:33;;;;;;;;;;;;;;;;;;5112334;28;860;-70
2022/07/01 09:33:07;;;;;;;;;;;;;;;;;;5110573;28;892;-70
2022/07/01 09:35:34;;;;;;;;;;;;;;;;;;5110708;28;1308;-71
2022/07/01 09:37:59;;;;;;;;;;;;;;;;;;5111633;28;840;-71
2022/07/01 09:40:24;;;;;;;;;;;;;;;;;;5093419;28;1390;-70
2022/07/01 09:42:50;;;;;;;;;;;;;;;;;;5111583;28;1901;-70
2022/07/01 09:45:15;;;;;;;;;;;;;;;;;;5111402;28;828;-70
2022/07/01 09:47:44;;;;;;;;;;;;;;;;;;5110341;28;1154;-70
2022/07/01 09:50:09;;;;;;;;;;;;;;;;;;5111296;28;915;-70
2022/07/01 09:52:35;;;;;;;;;;;;;;;;;;5111320;28;891;-70
2022/07/01 09:55:01;;;;;;;;;;;;;;;;;;5110869;28;871;-70
2022/07/01 09:57:26;;;;;;;;;;;;;;;;;;5109474;28;1190;-70
2022/07/01 09:59:52;;;;;;;;;;;;;;;;;;5109944;28;1377;-70
2022/07/01 10:02:18;;;;;;;;;;;;;;;;;;5109128;28;1553;-70
2022/07/01 10:04:48;;;;;;;;;;;;;;;;;;5111357;28;1897;-70
2022/07/01 10:07:28;;;;;;;;;;;;;;;;;;5109009;28;1162;-70
2022/07/01 10:09:53;;;;;;;;;;;;;;;;;;5113280;28;788;-70
2022/07/01 10:12:36;;;;;;;;;;;;;;;;;;5114362;28;848;-70
2022/07/01 10:15:02;;;;;;;;;;;;;;;;;;5114945;28;816;-70
2022/07/01 10:17:28;;;;;;;;;;;;;;;;;;5114359;28;884;-70
2022/07/01 10:19:54;;;;;;;;;;;;;;;;;;5114790;27;915;-70
2022/07/01 10:22:29;;;;;;;;;;;;;;;;;;5114505;28;1061;-70
2022/07/01 10:24:55;;;;;;;;;;;;;;;;;;5114897;28;1905;-70
2022/07/01 10:27:21;;;;;;;;;;;;;;;;;;5096077;28;1206;-70
2022/07/01 10:29:46;;;;;;;;;;;;;;;;;;5114658;28;975;-70
2022/07/01 10:32:21;;;;;;;;;;;;;;;;;;5114266;28;879;-69
2022/07/01 10:34:46;;;;;;;;;;;;;;;;;;5113751;28;1496;-70
2022/07/01 10:37:11;;;;;;;;;;;;;;;;;;5112852;28;1354;-70
2022/07/01 10:39:59;;;;;;;;;;;;;;;;;;5115111;28;828;-70
2022/07/01 10:42:54;;;;;;;;;;;;;;;;;;5113809;28;967;-69
2022/07/01 10:45:19;;;;;;;;;;;;;;;;;;5111084;28;1658;-70
2022/07/01 10:47:45;;;;;;;;;;;;;;;;;;5113585;27;1234;-70
2022/07/01 10:50:12;;;;;;;;;;;;;;;;;;5111263;28;1147;-70
2022/07/01 10:52:38;;;;;;;;;;;;;;;;;;5114496;28;934;-70
2022/07/01 10:55:05;;;;;;;;;;;;;;;;;;5112888;27;1295;-70
2022/07/01 10:57:37;;;;;;;;;;;;;;;;;;5120378;27;1198;-70
2022/07/01 11:00:02;;;;;;;;;;;;;;;;;;5127364;27;1135;-70
2022/07/01 11:02:32;;;;;;;;;;;;;;;;;;5130290;27;1534;-70
2022/07/01 11:05:01;;;;;;;;;;;;;;;;;;5133643;27;1964;-70
2022/07/01 11:07:29;;;;;;;;;;;;;;;;;;5133935;27;927;-70
2022/07/01 11:09:55;;;;;;;;;;;;;;;;;;5133369;27;1180;-70
2022/07/01 11:12:22;;;;;;;;;;;;;;;;;;5133738;27;1120;-70
2022/07/01 11:14:47;;;;;;;;;;;;;;;;;;5135171;27;1244;-70
2022/07/01 11:17:13;;;;;;;;;;;;;;;;;;5134660;27;990;-70
2022/07/01 11:19:38;;;;;;;;;;;;;;;;;;5134722;27;844;-70
2022/07/01 11:22:05;;;;;;;;;;;;;;;;;;5133106;27;809;-70
2022/07/01 11:24:31;;;;;;;;;;;;;;;;;;5134629;27;1906;-70
2022/07/01 11:27:00;;;;;;;;;;;;;;;;;;5128412;27;1280;-70
2022/07/01 11:29:27;;;;;;;;;;;;;;;;;;5133617;27;1217;-70
2022/07/01 11:31:52;;;;;;;;;;;;;;;;;;5134677;27;983;-70
2022/07/01 11:34:18;;;;;;;;;;;;;;;;;;5133644;27;758;-70
2022/07/01 11:39:33;;;;;;;;;;;;;;;;;;5133860;27;615;-70
2022/07/01 11:42:03;;;;;;;;;;;;;;;;;;5133762;27;879;-70
2022/07/01 11:44:29;;;;;;;;;;;;;;;;;;5131925;27;1917;-70
2022/07/01 11:46:54;;;;;;;;;;;;;;;;;;5132044;27;1178;-70
2022/07/01 11:49:23;;;;;;;;;;;;;;;;;;5131200;27;1145;-70
2022/07/01 11:52:15;;;;;;;;;;;;;;;;;;5133813;27;844;-70
2022/07/01 11:54:41;;;;;;;;;;;;;;;;;;5130648;27;1235;-70
2022/07/01 11:57:07;;;;;;;;;;;;;;;;;;5133190;27;753;-70
2022/07/01 11:59:33;;;;;;;;;;;;;;;;;;5132034;27;1375;-70
2022/07/01 12:01:58;;;;;;;;;;;;;;;;;;5133847;27;855;-70
2022/07/01 12:04:24;;;;;;;;;;;;;;;;;;5131722;27;1905;-71
2022/07/01 12:06:49;;;;;;;;;;;;;;;;;;5132371;27;809;-70
2022/07/01 12:09:16;;;;;;;;;;;;;;;;;;5131472;27;1322;-70
2022/07/01 12:11:49;;;;;;;;;;;;;;;;;;5133574;27;903;-70
2022/07/01 12:14:25;;;;;;;;;;;;;;;;;;5131577;27;1407;-70
2022/07/01 12:16:57;;;;;;;;;;;;;;;;;;5133369;27;933;-71
2022/07/01 12:19:42;;;;;;;;;;;;;;;;;;5131175;27;1276;-70
2022/07/01 12:22:15;;;;;;;;;;;;;;;;;;5133445;27;856;-71
2022/07/01 12:24:41;;;;;;;;;;;;;;;;;;5132798;27;1909;-70
2022/07/01 12:27:07;;;;;;;;;;;;;;;;;;5130894;27;1319;-71
2022/07/01 12:29:58;;;;;;;;;;;;;;;;;;5132794;27;1044;-70
2022/07/01 12:32:24;;;;;;;;;;;;;;;;;;5131849;27;843;-70
2022/07/01 12:34:53;;;;;;;;;;;;;;;;;;5132937;27;836;-70
2022/07/01 12:37:25;;;;;;;;;;;;;;;;;;5107681;28;1369;-70
2022/07/01 12:40:07;;;;;;;;;;;;;;;;;;5109233;27;1148;-70
2022/07/01 12:42:42;;;;;;;;;;;;;;;;;;5107046;28;1272;-69
2022/07/01 12:45:09;;;;;;;;;;;;;;;;;;5111517;27;1913;-69
2022/07/01 12:47:34;;;;;;;;;;;;;;;;;;5112450;28;924;-69
2022/07/01 12:50:10;;;;;;;;;;;;;;;;;;5112048;28;875;-70
2022/07/01 12:52:36;;;;;;;;;;;;;;;;;;5112300;28;888;-69
2022/07/01 12:55:12;;;;;;;;;;;;;;;;;;5110217;28;1351;-69
2022/07/01 12:57:37;;;;;;;;;;;;;;;;;;5112212;28;737;-69
2022/07/01 13:00:03;;;;;;;;;;;;;;;;;;5111658;28;1063;-70
2022/07/01 13:02:28;;;;;;;;;;;;;;;;;;5111483;28;894;-71
2022/07/01 13:04:53;;;;;;;;;;;;;;;;;;5109806;28;1901;-70
2022/07/01 13:07:18;;;;;;;;;;;;;;;;;;5109866;28;962;-71
2022/07/01 13:09:44;;;;;;;;;;;;;;;;;;5109768;28;1260;-70
2022/07/01 13:12:09;;;;;;;;;;;;;;;;;;5111152;28;899;-70
2022/07/01 13:14:34;;;;;;;;;;;;;;;;;;5111228;28;828;-70
2022/07/01 13:16:59;;;;;;;;;;;;;;;;;;5111221;28;950;-70
2022/07/01 13:19:25;;;;;;;;;;;;;;;;;;5111231;28;805;-70
2022/07/01 13:21:50;;;;;;;;;;;;;;;;;;5111267;28;994;-70
2022/07/01 13:24:15;;;;;;;;;;;;;;;;;;5111138;28;1910;-70
2022/07/01 13:26:41;;;;;;;;;;;;;;;;;;5110060;28;1240;-70
2022/07/01 13:29:06;;;;;;;;;;;;;;;;;;5109641;28;1192;-70
2022/07/01 13:31:31;;;;;;;;;;;;;;;;;;5110849;28;907;-70
2022/07/01 13:33:57;;;;;;;;;;;;;;;;;;5111189;28;841;-71
2022/07/01 13:36:22;;;;;;;;;;;;;;;;;;5110472;28;1084;-69
2022/07/01 13:38:48;;;;;;;;;;;;;;;;;;5111326;28;947;-69
2022/07/01 13:41:14;;;;;;;;;;;;;;;;;;5109699;28;852;-69
2022/07/01 13:43:39;;;;;;;;;;;;;;;;;;5113326;28;1972;-69
2022/07/01 13:46:05;;;;;;;;;;;;;;;;;;5115611;28;939;-69
2022/07/01 13:48:30;;;;;;;;;;;;;;;;;;5115434;28;911;-70
2022/07/01 13:50:56;;;;;;;;;;;;;;;;;;5114303;28;1189;-69
2022/07/01 13:53:21;;;;;;;;;;;;;;;;;;5113779;28;1242;-69
2022/07/01 13:55:46;;;;;;;;;;;;;;;;;;5115058;28;777;-70
2022/07/01 13:58:13;;;;;;;;;;;;;;;;;;5097042;28;1350;-69
2022/07/01 14:00:38;;;;;;;;;;;;;;;;;;5096949;28;1317;-70
2022/07/01 14:03:03;;;;;;;;;;;;;;;;;;5113927;28;1922;-70
2022/07/01 14:05:29;;;;;;;;;;;;;;;;;;5114790;28;978;-69
2022/07/01 14:07:54;;;;;;;;;;;;;;;;;;5113641;28;833;-69
2022/07/01 14:10:19;;;;;;;;;;;;;;;;;;5113209;28;1142;-69
2022/07/01 14:12:44;;;;;;;;;;;;;;;;;;5113584;28;828;-69
2022/07/01 14:15:10;;;;;;;;;;;;;;;;;;5095860;28;1230;-70
2022/07/01 14:17:35;;;;;;;;;;;;;;;;;;5114631;28;953;-70
2022/07/01 14:20:00;;;;;;;;;;;;;;;;;;5113582;28;833;-70
2022/07/01 14:22:26;;;;;;;;;;;;;;;;;;5113224;28;1343;-69
2022/07/01 14:24:51;;;;;;;;;;;;;;;;;;5113464;28;1889;-70
2022/07/01 14:27:16;;;;;;;;;;;;;;;;;;5121061;27;1202;-71
2022/07/01 14:29:42;;;;;;;;;;;;;;;;;;5113126;28;936;-70
2022/07/01 14:32:07;;;;;;;;;;;;;;;;;;5096382;28;820;-71
2022/07/01 14:34:32;;;;;;;;;;;;;;;;;;5113919;28;923;-70
2022/07/01 14:36:58;;;;;;;;;;;;;;;;;;5113130;28;1357;-70
2022/07/01 14:39:23;;;;;;;;;;;;;;;;;;5114629;28;828;-71
2022/07/01 14:41:50;;;;;;;;;;;;;;;;;;5113287;28;1353;-71
2022/07/01 14:44:16;;;;;;;;;;;;;;;;;;5112682;28;1890;-71
2022/07/01 14:46:42;;;;;;;;;;;;;;;;;;5113679;28;804;-71
2022/07/01 14:49:07;;;;;;;;;;;;;;;;;;5114207;28;785;-70
2022/07/01 14:51:33;;;;;;;;;;;;;;;;;;5096067;28;1220;-71
2022/07/01 14:53:58;;;;;;;;;;;;;;;;;;5114468;28;843;-71
2022/07/01 14:56:23;;;;;;;;;;;;;;;;;;5112348;28;1182;-70
2022/07/01 14:58:49;;;;;;;;;;;;;;;;;;5114482;28;824;-70
2022/07/01 15:01:15;;;;;;;;;;;;;;;;;;5114143;28;848;-70
2022/07/01 15:03:40;;;;;;;;;;;;;;;;;;5113511;28;1901;-70
2022/07/01 15:06:06;;;;;;;;;;;;;;;;;;5112783;28;1312;-70
2022/07/01 15:08:31;;;;;;;;;;;;;;;;;;5113413;28;1147;-71
2022/07/01 15:11:02;;;;;;;;;;;;;;;;;;5112513;28;966;-71
2022/07/01 15:13:37;;;;;;;;;;;;;;;;;;5112298;28;1458;-70
2022/07/01 15:16:03;;;;;;;;;;;;;;;;;;5112316;28;1115;-70
2022/07/01 15:18:29;;;;;;;;;;;;;;;;;;5113955;28;1115;-70
2022/07/01 15:20:54;;;;;;;;;;;;;;;;;;5107946;27;1335;-71
2022/07/01 15:23:20;;;;;;;;;;;;;;;;;;5111530;28;1913;-70
2022/07/01 15:25:45;;;;;;;;;;;;;;;;;;5113642;28;975;-71
2022/07/01 15:28:10;;;;;;;;;;;;;;;;;;5111482;28;1289;-71
2022/07/01 15:30:36;;;;;;;;;;;;;;;;;;5113325;28;840;-71
2022/07/01 15:33:01;;;;;;;;;;;;;;;;;;5111846;28;1144;-71
2022/07/01 15:35:26;;;;;;;;;;;;;;;;;;5111059;28;1284;-71
2022/07/01 15:37:51;;;;;;;;;;;;;;;;;;5112104;28;915;-71
2022/07/01 15:40:17;;;;;;;;;;;;;;;;;;5113092;28;856;-71
2022/07/01 15:42:42;;;;;;;;;;;;;;;;;;5112748;28;887;-71
2022/07/01 15:45:08;;;;;;;;;;;;;;;;;;5112369;28;1906;-71
2022/07/01 15:50:21;;;;;;;;;;;;;;;;;;5113103;28;673;-71
2022/07/01 15:52:47;;;;;;;;;;;;;;;;;;5111554;28;888;-71
2022/07/01 15:55:13;;;;;;;;;;;;;;;;;;5111042;28;1407;-71
2022/07/01 15:57:38;;;;;;;;;;;;;;;;;;5111989;27;1158;-71
2022/07/01 16:00:03;;;;;;;;;;;;;;;;;;5112470;28;832;-71
2022/07/01 16:02:29;;;;;;;;;;;;;;;;;;5113204;28;824;-71
2022/07/01 16:04:55;;;;;;;;;;;;;;;;;;5112903;28;1894;-71
2022/07/01 16:07:21;;;;;;;;;;;;;;;;;;5110582;28;1253;-71
2022/07/01 16:09:49;;;;;;;;;;;;;;;;;;5095122;28;1222;-70
2022/07/01 16:12:14;;;;;;;;;;;;;;;;;;5112323;28;931;-70
2022/07/01 16:14:40;;;;;;;;;;;;;;;;;;5111505;28;1368;-70
2022/07/01 16:17:06;;;;;;;;;;;;;;;;;;5110767;28;892;-71
2022/07/01 16:19:33;;;;;;;;;;;;;;;;;;5112816;28;911;-70
2022/07/01 16:22:02;;;;;;;;;;;;;;;;;;5112421;28;975;-70
2022/07/01 16:24:27;;;;;;;;;;;;;;;;;;5110371;28;1961;-70
2022/07/01 16:26:55;;;;;;;;;;;;;;;;;;5111900;28;836;-70
2022/07/01 16:29:22;;;;;;;;;;;;;;;;;;5110833;28;1185;-71
2022/07/01 16:31:48;;;;;;;;;;;;;;;;;;5110966;28;1226;-71
2022/07/01 16:34:13;;;;;;;;;;;;;;;;;;5110706;28;841;-70
2022/07/01 16:36:43;;;;;;;;;;;;;;;;;;5110811;28;1080;-70
2022/07/01 16:39:15;;;;;;;;;;;;;;;;;;5111236;28;912;-70
2022/07/01 16:41:40;;;;;;;;;;;;;;;;;;5111006;28;1581;-71
2022/07/01 16:44:08;;;;;;;;;;;;;;;;;;5111538;28;1971;-70
2022/07/01 16:46:34;;;;;;;;;;;;;;;;;;5112071;28;915;-70
2022/07/01 16:49:02;;;;;;;;;;;;;;;;;;5111535;28;831;-71
2022/07/01 16:51:30;;;;;;;;;;;;;;;;;;5109648;28;1344;-71
2022/07/01 16:53:55;;;;;;;;;;;;;;;;;;5110291;28;1296;-70
2022/07/01 16:56:22;;;;;;;;;;;;;;;;;;5111545;28;966;-70
2022/07/01 16:59:04;;;;;;;;;;;;;;;;;;5111483;28;770;-70
2022/07/01 17:01:30;;;;;;;;;;;;;;;;;;5111924;28;934;-70
2022/07/01 17:03:57;;;;;;;;;;;;;;;;;;5111613;28;1913;-70
2022/07/01 17:06:22;;;;;;;;;;;;;;;;;;5110832;28;899;-70
2022/07/01 17:08:47;;;;;;;;;;;;;;;;;;5111614;28;951;-70
2022/07/01 17:11:16;;;;;;;;;;;;;;;;;;5110728;28;1041;-70
2022/07/01 17:13:42;;;;;;;;;;;;;;;;;;5111369;28;828;-70
2022/07/01 17:16:07;;;;;;;;;;;;;;;;;;5111142;28;912;-70
2022/07/01 17:18:32;;;;;;;;;;;;;;;;;;5110975;28;828;-70
2022/07/01 17:20:58;;;;;;;;;;;;;;;;;;5111756;28;831;-71
2022/07/01 17:23:25;;;;;;;;;;;;;;;;;;5110652;28;1975;-71